createdAt,value
2019-02-20T00:00:12.972Z,6.39
2019-02-20T00:02:41.460Z,6.40
2019-02-20T00:05:09.892Z,6.44
2019-02-20T00:07:38.357Z,6.43
2019-02-20T00:10:07.327Z,6.40
2019-02-20T00:12:36.028Z,6.47
2019-02-20T00:15:05.801Z,6.61
2019-02-20T00:17:34.234Z,6.55
2019-02-20T00:20:02.723Z,6.59
2019-02-20T00:22:39.798Z,6.50
2019-02-20T00:25:01.355Z,6.55
2019-02-20T00:27:29.802Z,6.57
2019-02-20T00:29:58.195Z,6.59
2019-02-20T00:32:26.619Z,6.64
2019-02-20T00:34:55.297Z,6.75
2019-02-20T00:37:23.713Z,6.80
2019-02-20T00:39:52.188Z,6.85
2019-02-20T00:42:20.714Z,6.88
2019-02-20T00:44:56.499Z,6.83
2019-02-20T00:47:38.352Z,6.75
2019-02-20T00:50:06.889Z,6.67
2019-02-20T00:52:36.886Z,6.67
2019-02-20T00:55:07.011Z,6.65
2019-02-20T00:57:35.460Z,6.69
2019-02-20T01:00:06.060Z,6.64
2019-02-20T01:02:34.725Z,6.66
2019-02-20T01:05:03.162Z,6.62
2019-02-20T01:07:31.903Z,6.62
2019-02-20T01:10:00.593Z,6.65
2019-02-20T01:12:28.979Z,6.63
2019-02-20T01:14:57.429Z,6.61
2019-02-20T01:17:26.171Z,6.69
2019-02-20T01:19:54.611Z,6.76
2019-02-20T01:22:23.100Z,6.71
2019-02-20T01:24:51.553Z,6.81
2019-02-20T01:27:19.996Z,6.90
2019-02-20T01:29:48.453Z,6.98
2019-02-20T01:32:16.917Z,7.00
2019-02-20T01:34:45.331Z,6.95
2019-02-20T01:37:13.756Z,6.83
2019-02-20T01:39:42.170Z,6.72
2019-02-20T01:42:10.613Z,6.70
2019-02-20T01:44:39.168Z,6.72
2019-02-20T01:47:07.689Z,6.74
2019-02-20T01:49:36.443Z,6.75
2019-02-20T01:52:04.915Z,6.68
2019-02-20T01:54:33.593Z,6.66
2019-02-20T01:57:01.918Z,6.62
2019-02-20T01:59:30.623Z,6.65
2019-02-20T02:01:59.171Z,6.71
2019-02-20T02:04:27.542Z,6.76
2019-02-20T02:06:56.001Z,6.91
2019-02-20T02:09:24.447Z,6.92
2019-02-20T02:11:52.994Z,6.95
2019-02-20T02:14:21.428Z,6.99
2019-02-20T02:16:49.908Z,7.06
2019-02-20T02:19:18.283Z,6.90
2019-02-20T02:21:46.687Z,6.94
2019-02-20T02:24:15.135Z,6.89
2019-02-20T02:26:43.512Z,6.88
2019-02-20T02:29:11.994Z,6.87
2019-02-20T02:31:40.434Z,6.89
2019-02-20T02:34:08.890Z,6.91
2019-02-20T02:36:37.298Z,6.87
2019-02-20T02:39:06.280Z,6.79
2019-02-20T02:41:34.725Z,6.74
2019-02-20T02:44:03.224Z,6.76
2019-02-20T02:46:31.720Z,6.71
2019-02-20T02:49:00.107Z,6.76
2019-02-20T02:51:28.520Z,6.86
2019-02-20T02:53:56.884Z,6.88
2019-02-20T02:56:25.628Z,6.77
2019-02-20T02:58:54.198Z,6.76
2019-02-20T03:01:22.843Z,6.65
2019-02-20T03:03:51.233Z,6.59
2019-02-20T03:06:19.693Z,6.58
2019-02-20T03:08:48.230Z,6.63
2019-02-20T03:11:16.670Z,6.58
2019-02-20T03:13:46.918Z,6.60
2019-02-20T03:16:15.338Z,6.60
2019-02-20T03:18:43.831Z,6.59
2019-02-20T03:21:12.196Z,6.58
2019-02-20T03:23:40.760Z,6.54
2019-02-20T03:26:09.142Z,6.56
2019-02-20T03:28:37.549Z,6.57
2019-02-20T03:31:05.948Z,6.56
2019-02-20T03:33:34.742Z,6.56
2019-02-20T03:36:03.177Z,6.54
2019-02-20T03:38:31.904Z,6.53
2019-02-20T03:41:00.334Z,6.55
2019-02-20T03:43:28.809Z,6.48
2019-02-20T03:45:57.224Z,6.45
2019-02-20T03:48:25.890Z,6.52
2019-02-20T03:50:54.340Z,6.58
2019-02-20T03:53:22.551Z,6.57
2019-02-20T03:55:51.200Z,6.52
2019-02-20T03:58:19.919Z,6.47
2019-02-20T04:00:48.399Z,6.50
2019-02-20T04:03:16.803Z,6.47
2019-02-20T04:05:45.471Z,6.52
2019-02-20T04:08:13.860Z,6.59
2019-02-20T04:10:43.906Z,6.60
2019-02-20T04:13:12.404Z,6.50
2019-02-20T04:15:41.007Z,6.51
2019-02-20T04:18:10.869Z,6.52
2019-02-20T04:20:39.412Z,6.56
2019-02-20T04:23:08.070Z,6.59
2019-02-20T04:25:36.676Z,6.55
2019-02-20T04:28:05.439Z,6.61
2019-02-20T04:30:34.144Z,6.54
2019-02-20T04:33:02.630Z,6.49
2019-02-20T04:35:31.075Z,6.51
2019-02-20T04:37:59.526Z,6.56
2019-02-20T04:40:27.960Z,6.61
2019-02-20T04:42:58.478Z,6.59
2019-02-20T04:45:26.590Z,6.57
2019-02-20T04:47:55.031Z,6.64
2019-02-20T04:50:23.467Z,6.69
2019-02-20T04:52:52.194Z,6.72
2019-02-20T04:55:20.595Z,6.80
2019-02-20T04:57:52.155Z,6.72
2019-02-20T05:00:20.522Z,6.79
2019-02-20T05:02:49.214Z,6.73
2019-02-20T05:05:17.726Z,6.73
2019-02-20T05:07:46.192Z,6.74
2019-02-20T05:10:14.950Z,6.74
2019-02-20T05:12:43.367Z,6.77
2019-02-20T05:15:11.912Z,6.80
2019-02-20T05:17:40.431Z,6.88
2019-02-20T05:20:09.697Z,6.91
2019-02-20T05:22:38.108Z,6.93
2019-02-20T05:25:06.519Z,6.92
2019-02-20T05:27:34.929Z,6.89
2019-02-20T05:30:03.680Z,6.91
2019-02-20T05:32:32.401Z,6.98
2019-02-20T05:35:01.056Z,6.96
2019-02-20T05:37:29.689Z,6.98
2019-02-20T05:39:58.122Z,6.90
2019-02-20T05:42:26.880Z,6.87
2019-02-20T05:44:55.415Z,6.89
2019-02-20T05:47:23.755Z,6.88
2019-02-20T05:49:52.231Z,6.93
2019-02-20T05:52:20.589Z,6.94
2019-02-20T05:54:49.278Z,6.92
2019-02-20T05:57:17.637Z,6.86
2019-02-20T05:59:46.101Z,6.85
2019-02-20T06:02:14.631Z,6.86
2019-02-20T06:04:43.167Z,6.91
2019-02-20T06:07:11.905Z,6.94
2019-02-20T06:09:40.782Z,6.96
2019-02-20T06:12:09.467Z,6.83
2019-02-20T06:14:37.958Z,6.85
2019-02-20T06:17:06.413Z,6.84
2019-02-20T06:19:34.787Z,6.82
2019-02-20T06:22:03.307Z,6.86
2019-02-20T06:24:31.811Z,6.90
2019-02-20T06:27:00.224Z,6.87
2019-02-20T06:29:28.648Z,6.92
2019-02-20T06:31:57.125Z,6.98
2019-02-20T06:34:25.794Z,7.00
2019-02-20T06:36:54.168Z,7.05
2019-02-20T06:39:22.610Z,6.98
2019-02-20T06:41:51.017Z,7.04
2019-02-20T06:44:19.373Z,7.01
2019-02-20T06:46:47.755Z,7.00
2019-02-20T06:49:16.298Z,6.94
2019-02-20T06:51:44.654Z,6.96
2019-02-20T06:54:13.087Z,6.98
2019-02-20T06:56:41.980Z,6.95
2019-02-20T06:59:10.442Z,6.99
2019-02-20T07:01:38.961Z,6.99
2019-02-20T07:04:07.348Z,7.07
2019-02-20T07:06:47.953Z,7.12
2019-02-20T07:09:38.619Z,7.16
2019-02-20T07:12:18.759Z,7.04
2019-02-20T07:14:50.348Z,7.04
2019-02-20T07:17:44.163Z,7.13
2019-02-20T07:20:33.415Z,7.22
2019-02-20T07:23:23.940Z,7.24
2019-02-20T07:25:58.181Z,7.11
2019-02-20T07:28:44.756Z,7.13
2019-02-20T07:31:13.237Z,7.19
2019-02-20T07:33:41.609Z,7.15
2019-02-20T07:36:10.054Z,7.15
2019-02-20T07:38:38.512Z,7.16
2019-02-20T07:41:07.298Z,7.24
2019-02-20T07:43:35.967Z,7.04
2019-02-20T07:46:04.391Z,7.11
2019-02-20T07:48:32.796Z,6.90
2019-02-20T07:51:01.372Z,6.90
2019-02-20T07:53:29.763Z,6.91
2019-02-20T07:55:58.501Z,6.86
2019-02-20T07:58:26.884Z,6.91
2019-02-20T08:00:55.250Z,6.92
2019-02-20T08:03:23.735Z,6.91
2019-02-20T08:05:52.209Z,6.96
2019-02-20T08:08:20.906Z,6.93
2019-02-20T08:10:49.414Z,6.96
2019-02-20T08:13:18.145Z,7.07
2019-02-20T08:15:46.579Z,6.95
2019-02-20T08:18:14.998Z,6.88
2019-02-20T08:20:43.453Z,6.77
2019-02-20T08:23:11.861Z,6.76
2019-02-20T08:25:40.249Z,6.83
2019-02-20T08:28:08.713Z,6.89
2019-02-20T08:30:37.117Z,6.93
2019-02-20T08:33:05.736Z,6.98
2019-02-20T08:35:34.262Z,7.06
2019-02-20T08:38:02.599Z,7.24
2019-02-20T08:40:31.234Z,7.27
2019-02-20T08:42:59.873Z,7.43
2019-02-20T08:45:28.610Z,7.54
2019-02-20T08:47:57.001Z,7.59
2019-02-20T08:50:25.476Z,7.82
2019-02-20T08:52:54.001Z,7.92
2019-02-20T08:55:31.566Z,7.98
2019-02-20T08:57:52.994Z,8.10
2019-02-20T09:00:21.470Z,8.07
2019-02-20T09:02:50.275Z,7.83
2019-02-20T09:05:18.716Z,7.92
2019-02-20T09:07:47.191Z,7.92
2019-02-20T09:10:17.378Z,7.97
2019-02-20T09:12:46.585Z,8.01
2019-02-20T09:15:15.047Z,7.98
2019-02-20T09:17:43.462Z,8.27
2019-02-20T09:20:12.624Z,8.36
2019-02-20T09:22:41.032Z,8.38
2019-02-20T09:25:19.180Z,8.52
2019-02-20T09:27:41.167Z,8.60
2019-02-20T09:30:12.591Z,8.65
2019-02-20T09:32:41.021Z,8.74
2019-02-20T09:35:09.583Z,8.73
2019-02-20T09:37:38.005Z,8.72
2019-02-20T09:40:12.346Z,8.58
2019-02-20T09:42:41.066Z,8.63
2019-02-20T09:45:09.806Z,8.79
2019-02-20T09:47:38.263Z,8.61
2019-02-20T09:50:08.302Z,8.81
2019-02-20T09:52:37.026Z,9.06
2019-02-20T09:55:08.372Z,9.00
2019-02-20T09:57:37.184Z,9.07
2019-02-20T10:00:11.023Z,9.01
2019-02-20T10:02:39.401Z,9.13
2019-02-20T10:05:09.757Z,9.32
2019-02-20T10:07:38.310Z,9.08
2019-02-20T10:10:10.842Z,9.03
2019-02-20T10:12:39.326Z,8.99
2019-02-20T10:15:10.849Z,9.02
2019-02-20T10:17:39.444Z,8.94
2019-02-20T10:20:09.746Z,9.04
2019-02-20T10:22:38.219Z,9.13
2019-02-20T10:25:13.763Z,9.11
2019-02-20T10:27:43.230Z,8.93
2019-02-20T10:30:17.391Z,9.27
2019-02-20T10:32:45.993Z,9.50
2019-02-20T10:35:14.508Z,9.58
2019-02-20T10:37:42.879Z,9.59
2019-02-20T10:40:11.819Z,9.30
2019-02-20T10:42:40.353Z,9.46
2019-02-20T10:45:12.923Z,9.71
2019-02-20T10:47:41.376Z,9.78
2019-02-20T10:50:11.728Z,9.82
2019-02-20T10:52:40.088Z,9.59
2019-02-20T10:55:09.547Z,9.63
2019-02-20T10:57:38.229Z,9.66
2019-02-20T11:00:11.427Z,9.70
2019-02-20T11:02:39.953Z,10.28
2019-02-20T11:05:08.480Z,10.43
2019-02-20T11:07:37.044Z,10.69
2019-02-20T11:10:07.493Z,10.84
2019-02-20T11:12:35.982Z,10.82
2019-02-20T11:15:05.438Z,10.76
2019-02-20T11:17:33.884Z,10.77
2019-02-20T11:20:02.353Z,10.43
2019-02-20T11:22:32.112Z,10.59
2019-02-20T11:25:00.880Z,10.58
2019-02-20T11:27:29.635Z,10.78
2019-02-20T11:29:58.377Z,10.69
2019-02-20T11:32:26.919Z,10.67
2019-02-20T11:34:55.332Z,10.51
2019-02-20T11:37:24.011Z,11.11
2019-02-20T11:39:53.995Z,11.08
2019-02-20T11:42:23.009Z,10.96
2019-02-20T11:44:51.712Z,10.71
2019-02-20T11:47:20.281Z,10.93
2019-02-20T11:49:49.094Z,11.25
2019-02-20T11:52:18.518Z,11.13
2019-02-20T11:54:47.236Z,11.05
2019-02-20T11:57:15.700Z,10.85
2019-02-20T11:59:44.400Z,10.81
2019-02-20T12:02:12.862Z,10.83
2019-02-20T12:04:41.337Z,10.88
2019-02-20T12:07:09.729Z,10.66
2019-02-20T12:09:38.179Z,10.88
2019-02-20T12:12:06.610Z,11.11
2019-02-20T12:14:35.088Z,11.36
2019-02-20T12:17:03.975Z,11.38
2019-02-20T12:19:32.488Z,11.53
2019-02-20T12:22:00.950Z,11.85
2019-02-20T12:24:29.420Z,11.71
2019-02-20T12:26:57.874Z,11.80
2019-02-20T12:29:26.629Z,11.79
2019-02-20T12:31:55.071Z,11.77
2019-02-20T12:34:23.555Z,11.60
2019-02-20T12:36:51.936Z,11.03
2019-02-20T12:39:20.377Z,11.02
2019-02-20T12:41:48.800Z,10.92
2019-02-20T12:44:17.534Z,11.35
2019-02-20T12:46:47.737Z,11.55
2019-02-20T12:49:17.909Z,11.61
2019-02-20T12:51:46.324Z,11.08
2019-02-20T12:54:14.698Z,10.97
2019-02-20T12:56:44.172Z,11.03
2019-02-20T12:59:12.813Z,10.59
2019-02-20T13:01:41.361Z,10.45
2019-02-20T13:04:09.986Z,10.31
2019-02-20T13:06:38.723Z,10.33
2019-02-20T13:09:09.103Z,10.14
2019-02-20T13:11:37.671Z,10.18
2019-02-20T13:14:06.193Z,10.06
2019-02-20T13:16:34.669Z,10.16
2019-02-20T13:19:03.148Z,10.21
2019-02-20T13:21:31.611Z,10.24
2019-02-20T13:24:00.025Z,10.39
2019-02-20T13:26:28.463Z,10.39
2019-02-20T13:28:57.022Z,10.50
2019-02-20T13:31:25.495Z,10.66
2019-02-20T13:33:53.895Z,10.78
2019-02-20T13:36:22.413Z,10.99
2019-02-20T13:38:50.879Z,11.09
2019-02-20T13:41:19.676Z,11.34
2019-02-20T13:43:51.098Z,11.38
2019-02-20T13:46:19.660Z,11.13
2019-02-20T13:48:48.267Z,10.71
2019-02-20T13:51:17.743Z,10.40
2019-02-20T13:53:46.744Z,10.44
2019-02-20T13:56:15.271Z,10.40
2019-02-20T13:58:43.747Z,10.35
2019-02-20T14:01:12.543Z,10.48
2019-02-20T14:03:41.787Z,10.45
2019-02-20T14:06:10.556Z,10.57
2019-02-20T14:08:39.407Z,10.85
2019-02-20T14:11:08.646Z,11.03
2019-02-20T14:13:37.099Z,11.10
2019-02-20T14:16:05.557Z,10.98
2019-02-20T14:18:34.056Z,10.49
2019-02-20T14:21:02.701Z,10.27
2019-02-20T14:23:31.060Z,10.16
2019-02-20T14:26:00.784Z,10.20
2019-02-20T14:28:29.316Z,10.21
2019-02-20T14:30:57.789Z,10.46
2019-02-20T14:33:26.158Z,10.41
2019-02-20T14:35:54.633Z,10.55
2019-02-20T14:38:23.093Z,10.68
2019-02-20T14:40:51.556Z,10.81
2019-02-20T14:43:20.015Z,11.00
2019-02-20T14:45:48.411Z,11.41
2019-02-20T14:48:16.923Z,11.44
2019-02-20T14:50:45.317Z,11.32
2019-02-20T14:53:13.830Z,11.28
2019-02-20T14:55:42.230Z,11.26
2019-02-20T14:58:10.788Z,11.19
2019-02-20T15:00:39.594Z,11.07
2019-02-20T15:03:08.074Z,10.89
2019-02-20T15:05:36.511Z,10.60
2019-02-20T15:08:05.603Z,10.43
2019-02-20T15:10:34.055Z,10.55
2019-02-20T15:13:02.586Z,10.50
2019-02-20T15:15:31.046Z,10.48
2019-02-20T15:17:59.845Z,10.39
2019-02-20T15:20:28.370Z,10.36
2019-02-20T15:22:58.386Z,10.20
2019-02-20T15:25:26.983Z,10.20
2019-02-20T15:27:55.506Z,10.18
2019-02-20T15:30:23.974Z,10.15
2019-02-20T15:32:52.472Z,10.06
2019-02-20T15:35:21.023Z,9.91
2019-02-20T15:37:49.760Z,10.02
2019-02-20T15:40:18.316Z,10.08
2019-02-20T15:42:46.777Z,10.04
2019-02-20T15:45:15.307Z,9.99
2019-02-20T15:47:43.690Z,10.00
2019-02-20T15:50:15.643Z,9.87
2019-02-20T15:52:44.012Z,9.88
2019-02-20T15:55:12.486Z,9.88
2019-02-20T15:57:41.111Z,9.85
2019-02-20T16:00:17.087Z,9.82
2019-02-20T16:02:45.547Z,9.84
2019-02-20T16:05:14.283Z,9.85
2019-02-20T16:07:42.718Z,9.88
2019-02-20T16:10:11.774Z,9.86
2019-02-20T16:12:40.211Z,9.86
2019-02-20T16:15:10.336Z,9.92
2019-02-20T16:17:49.151Z,9.86
2019-02-20T16:20:15.261Z,9.85
2019-02-20T16:22:43.658Z,9.86
2019-02-20T16:25:16.090Z,9.83
2019-02-20T16:27:47.062Z,9.75
2019-02-20T16:30:15.278Z,9.74
2019-02-20T16:32:43.806Z,9.68
2019-02-20T16:35:12.700Z,9.69
2019-02-20T16:37:41.237Z,9.65
2019-02-20T16:40:12.513Z,9.58
2019-02-20T16:42:40.936Z,9.62
2019-02-20T16:45:12.489Z,9.62
2019-02-20T16:47:40.940Z,9.62
2019-02-20T16:50:09.644Z,9.57
2019-02-20T16:52:38.161Z,9.54
2019-02-20T16:55:06.721Z,9.55
2019-02-20T16:57:35.267Z,9.56
2019-02-20T17:00:03.981Z,9.58
2019-02-20T17:02:32.641Z,9.53
2019-02-20T17:05:01.057Z,9.49
2019-02-20T17:07:30.106Z,9.47
2019-02-20T17:09:58.816Z,9.46
2019-02-20T17:12:27.179Z,9.45
2019-02-20T17:14:55.704Z,9.46
2019-02-20T17:17:24.178Z,9.44
2019-02-20T17:19:52.532Z,9.45
2019-02-20T17:22:20.941Z,9.47
2019-02-20T17:24:49.450Z,9.46
2019-02-20T17:27:18.058Z,9.45
2019-02-20T17:29:46.553Z,9.48
2019-02-20T17:32:14.929Z,9.46
2019-02-20T17:34:43.381Z,9.47
2019-02-20T17:37:11.966Z,9.51
2019-02-20T17:39:41.094Z,9.56
2019-02-20T17:42:09.720Z,9.55
2019-02-20T17:44:38.247Z,9.52
2019-02-20T17:47:06.711Z,9.46
2019-02-20T17:49:35.266Z,9.48
2019-02-20T17:52:03.885Z,9.50
2019-02-20T17:54:32.304Z,9.46
2019-02-20T17:57:00.765Z,9.42
2019-02-20T17:59:29.143Z,9.37
2019-02-20T18:01:58.501Z,9.29
2019-02-20T18:04:27.241Z,9.27
2019-02-20T18:06:56.004Z,9.28
2019-02-20T18:09:24.707Z,9.29
2019-02-20T18:11:53.143Z,9.29
2019-02-20T18:14:21.608Z,9.27
2019-02-20T18:16:50.260Z,9.24
2019-02-20T18:19:18.568Z,9.27
2019-02-20T18:21:46.972Z,9.25
2019-02-20T18:24:15.724Z,9.24
2019-02-20T18:26:44.178Z,9.24
2019-02-20T18:29:12.558Z,9.21
2019-02-20T18:31:41.078Z,9.20
2019-02-20T18:34:09.557Z,9.23
2019-02-20T18:36:38.228Z,9.25
2019-02-20T18:39:07.051Z,9.26
2019-02-20T18:41:35.486Z,9.18
2019-02-20T18:44:04.234Z,9.23
2019-02-20T18:46:33.006Z,9.23
2019-02-20T18:49:01.568Z,9.20
2019-02-20T18:51:29.997Z,9.18
2019-02-20T18:53:58.511Z,9.20
2019-02-20T18:56:27.034Z,9.20
2019-02-20T18:58:55.440Z,9.15
2019-02-20T19:01:23.954Z,9.16
2019-02-20T19:03:52.542Z,9.12
2019-02-20T19:06:21.194Z,9.08
2019-02-20T19:08:51.613Z,9.07
2019-02-20T19:11:35.348Z,9.01
2019-02-20T19:14:23.061Z,9.00
2019-02-20T19:17:19.722Z,9.03
2019-02-20T19:20:15.072Z,8.95
2019-02-20T19:23:05.761Z,8.93
2019-02-20T19:25:37.337Z,8.90
2019-02-20T19:28:23.962Z,8.90
2019-02-20T19:31:21.029Z,8.88
2019-02-20T19:34:21.091Z,8.78
2019-02-20T19:37:14.931Z,8.78
2019-02-20T19:40:15.113Z,8.86
2019-02-20T19:43:01.638Z,8.86
2019-02-20T19:45:33.309Z,8.89
2019-02-20T19:48:31.840Z,8.76
2019-02-20T19:51:12.306Z,8.79
2019-02-20T19:53:43.927Z,8.77
2019-02-20T19:56:18.345Z,8.79
2019-02-20T19:59:21.491Z,8.72
2019-02-20T20:02:08.443Z,8.75
2019-02-20T20:04:51.634Z,8.74
2019-02-20T20:07:41.025Z,8.74
2019-02-20T20:10:27.679Z,8.69
2019-02-20T20:13:01.947Z,8.72
2019-02-20T20:15:36.217Z,8.61
2019-02-20T20:18:23.636Z,8.56
2019-02-20T20:21:25.121Z,8.61
2019-02-20T20:24:22.678Z,8.62
2019-02-20T20:27:20.723Z,8.67
2019-02-20T20:30:20.784Z,8.65
2019-02-20T20:33:11.530Z,8.60
2019-02-20T20:35:59.153Z,8.57
2019-02-20T20:38:36.344Z,8.49
2019-02-20T20:41:10.838Z,8.60
2019-02-20T20:43:45.032Z,8.61
2019-02-20T20:46:28.717Z,8.63
2019-02-20T20:49:02.800Z,8.67
2019-02-20T20:51:53.564Z,8.69
2019-02-20T20:54:39.898Z,8.65
2019-02-20T20:57:26.349Z,8.65
2019-02-20T21:00:00.798Z,8.65
2019-02-20T21:02:32.337Z,8.59
2019-02-20T21:05:20.176Z,8.59
2019-02-20T21:08:03.019Z,8.62
2019-02-20T21:11:09.015Z,8.52
2019-02-20T21:13:56.959Z,8.52
2019-02-20T21:16:43.362Z,8.55
2019-02-20T21:19:29.662Z,8.54
2019-02-20T21:22:22.339Z,8.55
2019-02-20T21:25:15.990Z,8.52
2019-02-20T21:27:53.236Z,8.49
2019-02-20T21:30:41.114Z,8.39
2019-02-20T21:33:33.307Z,8.32
2019-02-20T21:36:05.311Z,8.36
2019-02-20T21:38:48.743Z,8.38
2019-02-20T21:41:23.073Z,8.35
2019-02-20T21:44:09.330Z,8.35
2019-02-20T21:46:52.686Z,8.28
2019-02-20T21:49:29.929Z,8.24
2019-02-20T21:52:19.384Z,8.22
2019-02-20T21:55:02.581Z,8.30
2019-02-20T21:57:49.274Z,8.27
2019-02-20T22:00:27.838Z,8.24
2019-02-20T22:03:05.411Z,8.22
2019-02-20T22:05:59.742Z,8.21
2019-02-20T22:08:31.275Z,8.23
2019-02-20T22:11:28.270Z,8.14
2019-02-20T22:14:11.668Z,8.08
2019-02-20T22:16:48.762Z,8.07
2019-02-20T22:19:20.323Z,8.06
2019-02-20T22:22:11.026Z,8.00
2019-02-20T22:24:54.535Z,8.05
2019-02-20T22:27:48.532Z,8.05
2019-02-20T22:30:31.868Z,8.10
2019-02-20T22:33:03.567Z,8.10
2019-02-20T22:35:57.663Z,8.07
2019-02-20T22:38:29.259Z,8.10
2019-02-20T22:41:03.604Z,8.11
2019-02-20T22:43:43.815Z,8.11
2019-02-20T22:46:15.352Z,8.06
2019-02-20T22:48:58.855Z,7.95
2019-02-20T22:51:36.282Z,7.93
2019-02-20T22:54:11.014Z,7.92
2019-02-20T22:57:05.893Z,7.90
2019-02-20T23:00:08.515Z,7.94
2019-02-20T23:02:48.972Z,7.98
2019-02-20T23:05:36.656Z,7.94
2019-02-20T23:08:23.244Z,7.88
2019-02-20T23:11:15.660Z,7.89
2019-02-20T23:13:59.099Z,7.84
2019-02-20T23:16:27.640Z,7.85
2019-02-20T23:18:56.383Z,7.88
2019-02-20T23:21:24.843Z,7.90
2019-02-20T23:23:53.226Z,7.85
2019-02-20T23:26:21.701Z,7.85
2019-02-20T23:28:50.120Z,7.93
2019-02-20T23:31:18.508Z,7.90
2019-02-20T23:33:47.014Z,7.81
2019-02-20T23:36:15.492Z,7.76
2019-02-20T23:38:43.871Z,7.85
2019-02-20T23:41:12.265Z,7.85
2019-02-20T23:43:40.658Z,7.81
2019-02-20T23:46:09.111Z,7.82
2019-02-20T23:48:37.509Z,7.82
2019-02-20T23:51:05.946Z,7.83
2019-02-20T23:53:34.599Z,7.84
2019-02-20T23:56:02.928Z,7.91
2019-02-20T23:58:31.375Z,7.84
